createdAt,value
2022-10-17T00:07:56.928Z,30.45
2022-10-17T00:18:11.527Z,37.33
2022-10-17T00:28:15.333Z,24.58
2022-10-17T00:38:17.146Z,32.92
2022-10-17T00:48:25.951Z,33.95
2022-10-17T00:58:29.629Z,32.33
2022-10-17T01:08:37.173Z,27.45
2022-10-17T01:30:27.268Z,26.98
2022-10-17T01:40:42.294Z,29.00
2022-10-17T01:50:53.376Z,24.35
2022-10-17T02:00:59.348Z,30.98
2022-10-17T02:11:11.225Z,27.50
2022-10-17T02:21:22.745Z,26.67
2022-10-17T02:31:36.547Z,27.35
2022-10-17T02:41:40.946Z,27.08
2022-10-17T02:51:49.279Z,28.83
2022-10-17T03:01:52.066Z,34.15
2022-10-17T03:11:53.980Z,33.88
2022-10-17T03:21:57.209Z,24.58
2022-10-17T03:31:59.229Z,27.73
2022-10-17T03:42:01.185Z,32.40
2022-10-17T03:52:03.676Z,37.28
2022-10-17T04:02:09.045Z,30.23
2022-10-17T04:23:15.364Z,27.92
2022-10-17T04:33:17.582Z,34.53
2022-10-17T04:43:19.739Z,30.45
2022-10-17T04:53:22.819Z,33.05
2022-10-17T05:03:25.096Z,30.38
2022-10-17T05:13:27.221Z,35.13
2022-10-17T05:23:30.235Z,33.83
2022-10-17T05:33:54.144Z,26.65
2022-10-17T05:55:23.725Z,23.20
2022-10-17T06:05:27.413Z,31.10
2022-10-17T06:15:31.198Z,29.13
2022-10-17T06:25:39.405Z,30.55
2022-10-17T06:35:41.947Z,25.25
2022-10-17T06:45:46.868Z,24.40
2022-10-17T07:07:45.541Z,29.90
2022-10-17T07:17:49.770Z,19.50
2022-10-17T07:27:56.327Z,19.13
2022-10-17T07:37:58.421Z,22.80
2022-10-17T07:48:00.314Z,19.48
2022-10-17T07:58:02.609Z,23.25
2022-10-17T08:08:07.577Z,18.35
2022-10-17T08:18:09.524Z,19.35
2022-10-17T08:28:11.356Z,15.88
2022-10-17T08:38:13.527Z,14.20
2022-10-17T08:48:23.256Z,14.55
2022-10-17T08:58:35.516Z,16.30
2022-10-17T09:08:47.999Z,13.73
2022-10-17T09:19:09.989Z,17.67
2022-10-17T09:29:20.202Z,12.82
2022-10-17T09:39:24.277Z,17.38
2022-10-17T09:49:35.082Z,19.55
2022-10-17T09:59:44.109Z,15.43
2022-10-17T10:09:47.902Z,13.88
2022-10-17T10:19:51.457Z,14.85
2022-10-17T10:29:53.588Z,12.98
2022-10-17T10:40:04.935Z,13.73
2022-10-17T10:50:42.982Z,10.75
2022-10-17T11:00:48.956Z,16.88
2022-10-17T11:11:29.455Z,12.57
2022-10-17T11:21:57.026Z,12.88
2022-10-17T11:32:15.327Z,19.38
2022-10-17T11:52:56.720Z,13.35
2022-10-17T12:03:20.608Z,12.50
2022-10-17T12:13:50.613Z,18.23
2022-10-17T12:23:54.460Z,15.65
2022-10-17T12:33:58.839Z,14.10
2022-10-17T12:44:00.734Z,10.65
2022-10-17T12:54:14.350Z,12.80
2022-10-17T13:04:16.784Z,14.75
2022-10-17T13:14:21.815Z,19.33
2022-10-17T13:24:38.275Z,15.70
2022-10-17T13:35:10.175Z,18.17
2022-10-17T13:45:31.499Z,52.72
2022-10-17T13:55:33.341Z,11.40
2022-10-17T14:05:35.469Z,6.18
2022-10-17T14:15:37.890Z,16.35
2022-10-17T14:25:41.126Z,14.35
2022-10-17T14:35:55.478Z,10.80
2022-10-17T14:45:59.504Z,15.20
2022-10-17T14:56:04.084Z,14.38
2022-10-17T15:06:28.898Z,10.30
2022-10-17T15:16:35.277Z,13.10
2022-10-17T15:26:37.512Z,15.52
2022-10-17T15:36:41.583Z,20.80
2022-10-17T15:46:43.626Z,11.23
2022-10-17T15:56:54.627Z,13.63
2022-10-17T16:06:56.500Z,14.27
2022-10-17T16:17:02.355Z,18.73
2022-10-17T16:27:04.221Z,18.10
2022-10-17T16:37:06.034Z,27.92
2022-10-17T16:47:08.464Z,53.47
2022-10-17T16:57:10.325Z,54.80
2022-10-17T17:07:12.201Z,28.67
2022-10-17T17:17:24.465Z,40.88
2022-10-17T17:27:36.189Z,49.60
2022-10-17T17:37:41.658Z,34.53
2022-10-17T17:47:43.469Z,42.75
2022-10-17T17:57:45.219Z,36.17
2022-10-17T18:07:47.146Z,42.65
2022-10-17T18:17:49.111Z,45.22
2022-10-17T18:27:56.228Z,38.78
2022-10-17T18:38:01.279Z,56.30
2022-10-17T18:48:08.500Z,57.03
2022-10-17T18:58:10.388Z,50.75
2022-10-17T19:08:16.275Z,55.95
2022-10-17T19:18:24.375Z,47.90
2022-10-17T19:28:26.244Z,47.08
2022-10-17T19:38:35.395Z,44.78
2022-10-17T19:48:38.500Z,37.15
2022-10-17T19:58:40.397Z,28.92
2022-10-17T20:08:42.815Z,36.17
2022-10-17T20:18:58.128Z,34.13
2022-10-17T20:29:05.257Z,37.63
2022-10-17T20:39:15.201Z,35.53
2022-10-17T20:49:19.785Z,34.13
2022-10-17T20:59:21.820Z,23.92
2022-10-17T21:09:24.087Z,33.50
2022-10-17T21:19:26.133Z,36.17
2022-10-17T21:29:29.577Z,28.13
2022-10-17T21:39:43.748Z,23.55
2022-10-17T21:49:45.572Z,27.08
2022-10-17T21:59:48.835Z,32.08
2022-10-17T22:09:50.675Z,26.55
2022-10-17T22:19:52.447Z,33.00
2022-10-17T22:29:54.252Z,34.42
2022-10-17T22:39:56.456Z,26.17
2022-10-17T22:49:58.303Z,32.05
2022-10-17T23:00:00.211Z,27.45
2022-10-17T23:10:02.166Z,31.45
2022-10-17T23:20:04.404Z,21.33
2022-10-17T23:30:08.056Z,27.65
2022-10-17T23:40:10.582Z,24.27
2022-10-17T23:50:12.836Z,24.83
